PILOTS ONLINE: 479    ATC ONLINE: 81

Location

City Milton
Country  United States
Latitude 30° 43' 27" N
Longitude 87° 1' 18" W
Elevation 199 ft
Type Medium Airport

Weather

METAR
2014/07/11 20:56
KNSE 112056Z VRB04KT 10SM SCT045 SCT120 BKN250 33/21 A3008 RMK AO2 SLP168 T2 SET T03330206 56020 $
TAF
2014/07/11 15:15
TAF KNSE 1115/1215 30005KT 9999 SCT045 BKN250 QNH3013INS 
      TEMPO 1116/1118 VRB05KT BKN050 
     FM111815 26008KT 9999 VCTS SCT050CB SCT150 BKN250 QNH3000INS 
      TEMPO 1119/1122 VRB15G25KT 9000 TSRA SCT025 BKN050CB BKN100 
     FM120008 29005KT 9999 FEW035 SCT140 BKN250 QNH3006INS 
     FM121010 35004KT 9999 FEW025 FEW150 SCT250 QNH3008INS T33/1119Z T23/1211Z FN00002

Runways

05/23 6000 ft / 200 ft
09/27 6000 ft / 200 ft
14/32 6000 ft / 200 ft
18/36 6000 ft / 200 ft

Outbound flights

Inbound flights


Spotted incorrect airport information? Please login with your VATSIM ID.